Sierraville, California
Current Conditions -  °F | °C
As of 2:55 PM on Wednesday 22 Oct 2014 (Local Time) from KTRK Reporting Station
Broken Clouds Broken Clouds  
Wind Chill: 64°   Ceiling: 23000
Heat Index: 64°   Visibility: 10mi
Dew Point: 27°   Wind: 16mph
Humidity: 24%   Direction: 230°SW
Pressure: 30.14"   Gusts: 22mph
Location:  39.59°N, 120.37°W
Report Text: KTRK 222155Z 23014G19KT 10SM FEW160 BKN230 18/M03 A3014 RMK NOSPECI
Loading
Personal Weather Stations






























Interactive Weather Map New forecast layout! Learn more

10-Day Weather Forecast

Advertisements
Track Severe Weather on mobile